Flight Track Log - Related Links

Times and Time Zones

All times are in EST time to prevent confusion due to time zone crossing. See the MRA688 flight status page for this flight to view local times or setup timezone preferences in your user account.

Time Position Orientation Groundspeed Altitude Reporting Facility
EST Latitude Longitude Course Direction KTS MPH feet Rate Location/Type
Sat 09:10:49 AM 33.6608 -78.9543 229° Southwest  Level FlightAware Approximate
Sat 09:11:49 AM 33.6375 -78.9860 229° Southwest  Level FlightAware Approximate
Sat 09:12:49 AM 33.6143 -79.0178 229° Southwest  Level FlightAware Approximate
Sat 09:13:49 AM 33.5910 -79.0495 229° Southwest  Level FlightAware Approximate
Sat 09:14:49 AM 33.5677 -79.0812 206° Southwest  Level FlightAware Approximate
Sat 09:15:49 AM 33.5383 -79.0988 229° Southwest  Level FlightAware Approximate
Sat 09:16:49 AM 33.5152 -79.1307 229° Southwest  Level FlightAware Approximate
Sat 09:17:49 AM 33.4921 -79.1625 229° Southwest  Level FlightAware Approximate
Sat 09:18:49 AM 33.4690 -79.1944 229° Southwest  Level FlightAware Approximate
Sat 09:19:49 AM 33.4459 -79.2262 229° Southwest  Level FlightAware Approximate
Sat 09:20:49 AM 33.4228 -79.2580 229° Southwest  Level FlightAware Approximate
Sat 09:21:49 AM 33.3997 -79.2898 229° Southwest  Level FlightAware Approximate
Sat 09:22:49 AM 33.3765 -79.3216 229° Southwest  Level FlightAware Approximate
Sat 09:23:49 AM 33.3534 -79.3534 229° Southwest  Level FlightAware Approximate
Sat 09:24:49 AM 33.3302 -79.3851 229° Southwest  Level FlightAware Approximate
Sat 09:25:49 AM 33.3071 -79.4169 214° Southwest  Level FlightAware Approximate
Sat 09:26:49 AM 33.2782 -79.4404 229° Southwest  Level FlightAware Approximate
Sat 09:27:49 AM 33.2552 -79.4723 229° Southwest  Level FlightAware Approximate
Sat 09:28:49 AM 33.2323 -79.5041 229° Southwest  Level FlightAware Approximate
Sat 09:29:49 AM 33.2093 -79.5360 229° Southwest  Level FlightAware Approximate
Sat 09:30:49 AM 33.1862 -79.5678 229° Southwest  Level FlightAware Approximate
Sat 09:31:49 AM 33.1632 -79.5997 229° Southwest  Level FlightAware Approximate
Sat 09:32:49 AM 33.1402 -79.6315 229° Southwest  Level FlightAware Approximate
Sat 09:33:49 AM 33.1172 -79.6633 229° Southwest  Level FlightAware Approximate
Sat 09:34:49 AM 33.0941 -79.6951 229° Southwest  Level FlightAware Approximate
Sat 09:35:49 AM 33.0711 -79.7268 229° Southwest  Level FlightAware Approximate
Sat 09:36:49 AM 33.0480 -79.7586 229° Southwest  Level FlightAware Approximate
Sat 09:37:49 AM 33.0249 -79.7903 229° Southwest  Level FlightAware Approximate
Sat 09:38:49 AM 33.0019 -79.8220 229° Southwest  Level FlightAware Approximate
Sat 09:39:49 AM 32.9788 -79.8537 229° Southwest  Level FlightAware Approximate
Sat 09:40:49 AM 32.9557 -79.8854 229° Southwest  Level FlightAware Approximate
Sat 09:41:49 AM 32.9326 -79.9170 229° Southwest  Level FlightAware Approximate
Sat 09:42:49 AM 32.9095 -79.9487 229° Southwest  Level FlightAware Approximate
Sat 09:43:49 AM 32.8864 -79.9803 229° Southwest  Level FlightAware Approximate
Sat 09:44:49 AM 32.8633 -80.0119 229° Southwest  Level FlightAware Approximate
Sat 09:45:49 AM 32.8401 -80.0435 229° Southwest  Level FlightAware Approximate
Sat 09:46:49 AM 32.8170 -80.0751 229° Southwest  Level FlightAware Approximate
Sat 09:47:49 AM 32.7939 -80.1067 229° Southwest  Level FlightAware Approximate
Sat 09:48:49 AM 32.7707 -80.1382 229° Southwest  Level FlightAware Approximate
Sat 09:49:49 AM 32.7476 -80.1697 229° Southwest  Level FlightAware Approximate
Sat 09:50:49 AM 32.7244 -80.2013 229° Southwest  Level FlightAware Approximate
Sat 09:51:49 AM 32.7012 -80.2328 229° Southwest  Level FlightAware Approximate
Sat 09:52:49 AM 32.6780 -80.2642 229° Southwest  Level FlightAware Approximate
Sat 09:53:49 AM 32.6548 -80.2957 229° Southwest  Level FlightAware Approximate
Sat 09:54:49 AM 32.6316 -80.3271 229° Southwest  Level FlightAware Approximate
Sat 09:55:49 AM 32.6084 -80.3586 220° Southwest  Level FlightAware Approximate
Sat 09:56:49 AM 32.5814 -80.3853 227° Southwest  Level FlightAware Approximate
Sat 09:57:49 AM 32.5574 -80.4155 231° Southwest  Level FlightAware Approximate
Sat 09:58:49 AM 32.5354 -80.4481 238° Southwest  Level FlightAware Approximate
Sat 09:59:49 AM 32.5166 -80.4834 225° Southwest  Level FlightAware Approximate
Sat 10:00:49 AM 32.4916 -80.5125 232° Southwest  Level FlightAware Approximate
Sat 10:01:49 AM 32.4698 -80.5453 227° Southwest  Level FlightAware Approximate
Sat 10:02:49 AM 32.4459 -80.5759 236° Southwest  Level FlightAware Approximate
Sat 10:03:49 AM 32.4260 -80.6104 217° Southwest  Level Estimated
Sat 10:04:49 AM 32.4000 -80.6333 356° North  Level FlightAware Approximate
Sat 10:05:49 AM 32.4351 -80.6363 176° South  Level Estimated
Sat 10:06:49 AM 32.4000 -80.6333 356° North  Level FlightAware Approximate
Sat 10:07:49 AM 32.4351 -80.6363 356° North  Level Estimated

Login

Don't have an account? Register now (free) for customized features, flight alerts, and more!